Terminal Aerodrome Forecast
Issued by NWS

Home | Current Version | Previous Version | Text Only | Print | Product List | Glossary On
Versions: 1 2 3 4 5 6 7 8 9 10 11 12 13 14 15 16 17 18 19 20 21 22 23 24 25 26 27 28 29 30 31 32 33 34 35 36 37
000
FTAK31 PAFA 251151 AAA
TAFAMC
TAF AMD
PAMC 251151Z 2512/2612 00000KT 2SM -SN BR BKN015 OVC035
      TEMPO 2514/2518 6SM -SN BR SCT020 OVC050
     FM252100 19005KT 3SM -SN BR OVC015=

USA.gov is the U.S. government's official web portal to all federal, state and local government web resources and services.